CheckWX is a tool to help pilots better visualize weather data.  It is not intended as a substitute for an official pre-flight weather briefing.

06:33:19 UTC

EBBL METAR
Kleine Brogel Air Base Airport
Kleine Brogel, Belgium
Current

38 mins ago

EBBL 080555Z AUTO 22017KT 9999 OVC021/// 11/06 Q1004 WHT
Observed
Dec-8 @ 05:55 UTC
Wind
  • 220° at 17 KTS
Visibility
10,000+ meters
Flight Rules
MVFR
Cloud Levels
  • Overcast at 2,100' AGL
Temperature
11°C / 52°F
Dewpoint
C / 43°F
Humidity
72%
Altimeter
29.65" Hg
Pressure
1003.92 hPa
Previous

1 hour ago

EBBL 080525Z AUTO 21015KT 9999 OVC022/// 10/06 Q1005 WHT
Observed
Dec-8 @ 05:25 UTC
Wind
  • 210° at 15 KTS
Visibility
10,000+ meters
Flight Rules
MVFR
Cloud Levels
  • Overcast at 2,200' AGL
Temperature
10°C / 50°F
Dewpoint
C / 43°F
Humidity
76%
Altimeter
29.68" Hg
Pressure
1004.92 hPa
Previous

2 hours ago

EBBL 080455Z AUTO 21015KT 9999 BKN023/// 10/06 Q1005 WHT
Observed
Dec-8 @ 04:55 UTC
Wind
  • 210° at 15 KTS
Visibility
10,000+ meters
Flight Rules
MVFR
Cloud Levels
  • Broken at 2,300' AGL
Temperature
10°C / 50°F
Dewpoint
C / 43°F
Humidity
76%
Altimeter
29.68" Hg
Pressure
1004.92 hPa